x

South Santa Rosa Is. Ca (46069) Wave Buoy

6:50 - Tue 23rd May 2017 All times are PDT. -7 hours from GMT.

  • Sig Wave height 4.6ft
  • Swell Direction
  • Peak Period 15s
  • Average Period 6s
  • Wind
    13mph, 18mph gusts
  • Sea Temp 55°f
  • Luft Temp 52°f
  • Sea Pressure 1014.1mb
  • South Santa Rosa Is. Ca
  • South Santa Rosa Is. Ca

More Historic Weather Station data

Upgrade to MSW Pro to gain access to the past 30 days of data for over 8000 Wavebouys and Weather Stations around the globe.

Join Pro

Comparision Forecast

View Surf forecast
   
Di 05/23 6:50 4.5ft 15s 6s 13 18 mph 1014.1mb 55f 52f
5:50 4.5ft 15s 6s 16 20 mph 1013.9mb 55f 52f
4:50 5ft 15s 6s 13 18 mph 1014mb 55f 52f
3:50 5ft 15s 6s 13 18 mph 1014.5mb 55f 52f
2:50 5ft 15s 6s 16 18 mph 1014.2mb 55f 52f
1:50 5.5ft 15s 6s 18 20 mph 1014.3mb 55f 53f
12:50 5.5ft 16s 6s 20 25 mph 1014.5mb 55f 53f
Mo 05/22 11:50 6ft 16s 6s 22 25 mph 1014.7mb 55f 53f
10:50 5ft 15s 5s 22 25 mph 1014.6mb 55f 53f
9:50 5.5ft 16s 6s 20 25 mph 1014.3mb 55f 53f
8:50 5.5ft 16s 6s 20 25 mph 1014.2mb 55f 53f
7:50 5ft 16s 6s 20 25 mph 1013.8mb 55f 53f
6:50 5ft 16s 6s 18 22 mph 1013.7mb 56f 54f
5:50 5ft 16s 6s 20 25 mph 1013.8mb 56f 54f
4:50 5.5ft 14s 6s 20 22 mph 1014.2mb 56f 54f
3:50 6ft 16s 6s 20 22 mph 1014.8mb 56f 54f
2:50 5ft 16s 6s 16 20 mph 1015.3mb 56f 54f
1:50 6ft 13s 6s 16 20 mph 1015.4mb 56f 54f
12:50 5.5ft 16s 7s 16 20 mph 1015.7mb 55f 54f
11:50 5ft 16s 6s 16 20 mph 1015.9mb 55f 53f
10:50 5ft 16s 6s 16 18 mph 1015.9mb 55f 52f
9:50 5ft 16s 6s 16 20 mph 1015.7mb 55f 51f
8:50 5ft 9s 6s 16 20 mph 1015.1mb 55f 51f
7:50 5.5ft 16s 6s 18 20 mph 1014.7mb 55f 51f
6:50 5ft 17s 6s 16 20 mph 1014.4mb 55f 52f
5:50 5.5ft 10s 6s 20 22 mph 1013.4mb 55f 52f
4:50 5.5ft 9s 6s 20 25 mph 1013.2mb 55f 52f
3:50 6ft 8s 6s 20 22 mph 1013.3mb 55f 52f
2:50 6ft 9s 6s 20 25 mph 1013.7mb 55f 52f
1:50 6ft 10s 6s 18 22 mph 1013.9mb 56f 53f
12:50 6ft 15s 6s 18 22 mph 1013.9mb 56f 52f
So 05/21 11:50 6ft 5s 6s 20 25 mph 1014mb 56f 52f
10:50 6ft 8s 6s 20 25 mph 1014.2mb 56f 53f
9:50 5.5ft 14s 6s 20 25 mph 1014.1mb 56f 53f
8:50 5.5ft 14s 5s 20 25 mph 1013.6mb 56f 53f
7:50 5ft 11s 6s 22 27 mph 1013.1mb 56f 53f
6:50 5ft 11s 6s 22 27 mph 1013mb 56f 54f
5:50 4.5ft 9s 6s 18 20 mph 1012.9mb 56f 56f
4:50 5ft 12s 6s 16 18 mph 1013.3mb 56f 55f
3:50 5ft 14s 6s 20 22 mph 1013.6mb 56f 55f
2:50 6ft 9s 6s 20 22 mph 1013.8mb 56f 55f
1:50 5.5ft 9s 6s 18 20 mph 1014.1mb 56f 55f
12:50 6ft 9s 6s 16 20 mph 1014mb 56f 55f
11:50 5.5ft 10s 6s 18 22 mph 1013.8mb 56f 53f
10:50 5.5ft 8s 6s 18 20 mph 1013.8mb 56f 53f
9:50 6ft 9s 6s 16 18 mph 1013.4mb 55f 52f
8:50 6ft 9s 6s 16 18 mph 1013.3mb 55f 52f
7:50 6ft 9s 6s 18 22 mph 1012.5mb 55f 52f
6:50 6.5ft 9s 6s 20 25 mph 1011.6mb 55f 52f
5:50 6ft 9s 6s 20 25 mph 1011mb 55f 52f
4:50 6ft 9s 6s 22 27 mph 1010.4mb 55f 53f
3:50 6ft 9s 6s 25 27 mph 1010.6mb 55f 53f
2:50 6ft 10s 6s 25 27 mph 1010.8mb 55f 53f
1:50 6ft 9s 6s 22 25 mph 1011mb 55f 53f
12:50 6ft 9s 6s 22 25 mph 1010.9mb 55f 53f
Sa 05/20 11:50 6ft 8s 6s 18 22 mph 1011.4mb 55f 53f
10:50 6ft 9s 6s 18 22 mph 1011.7mb 55f 53f
9:50 6ft 14s 6s 20 25 mph 1011.6mb 55f 53f
8:50 5ft 15s 5s 22 25 mph 1011.4mb 56f 53f
7:50 5.5ft 15s 5s 20 25 mph 1011.1mb 56f 53f
6:50 5ft 14s 5s 25 27 mph 1011mb 56f 53f
5:50 5ft 8s 5s 22 25 mph 1011.4mb 56f 53f
4:50 5ft 15s 6s 20 25 mph 1011.6mb 56f 53f
3:50 5.5ft 8s 6s 18 22 mph 1012.1mb 56f 53f
2:50 5ft 8s 6s 20 22 mph 1012.7mb 56f 53f
1:50 5.5ft 8s 6s 18 20 mph 1013.1mb 56f 53f
12:50 5.5ft 8s 6s 18 20 mph 1013.4mb 56f 53f
11:50 5.5ft 15s 6s 16 20 mph 1013.8mb 56f 53f
10:50 5ft 8s 6s 18 20 mph 1013.5mb 56f 53f
9:50 5.5ft 8s 6s 16 18 mph 1013.6mb 56f 54f
8:50 5ft 8s 6s 13 16 mph 1013.3mb 56f 55f
7:50 5.5ft 8s 6s 18 22 mph 1012.6mb 56f 55f
6:50 5ft 8s 6s 18 22 mph 1012.3mb 56f 55f
5:50 5ft 15s 6s 16 20 mph 1012.2mb 56f 55f
4:50 4.5ft 8s 6s 16 20 mph 1011.9mb 56f 55f
3:50 4.5ft 9s 6s 13 18 mph 1011.9mb 56f 55f
2:50 5ft 9s 6s 16 20 mph 1011.8mb 55f 55f
1:50 5ft 9s 7s 16 20 mph 1012.5mb 55f 55f
12:50 5ft 8s 6s 16 18 mph 1012.8mb 55f 55f
Fr 05/19 11:50 5ft 8s 7s 16 18 mph 1012.9mb 55f 55f
10:50 5ft 8s 7s 13 16 mph 1013.4mb 56f 56f
9:50 5ft 8s 7s 13 16 mph 1013.3mb 56f 56f
8:50 5ft 8s 7s 13 16 mph 1013.1mb 57f 56f
7:50 5ft 9s 8s 11 11 mph 1012.8mb 58f 57f
6:50 5ft 8s 7s 11 13 mph 1012.7mb 58f 58f
5:50 4.5ft 8s 7s 11 11 mph 1012.9mb 58f 58f
4:50 5ft 9s 7s 9 11 mph 1012.9mb 58f 59f
3:50 5ft 8s 7s 7 9 mph 1013.2mb 58f 59f
2:50 5ft 7s 7s 4 7 mph 1013.8mb 59f 60f